Bente — PBTG — position and weather

sailwx.info

Track history (hours):
 
Tides and Currents Weather Stations Pressure Air Temp Water Temp Dewpoint Dewpoint Depression Visibility Wind Speed Wind Dir Waves Ship Positions

Bente

Last reported at 2017-Oct-19 18:26 UTC. Time now 2017-Oct-20 14:29 UTC.
Position N 44°30' E 012°25'.

Length 90 m; draft 3.9 m.

Type: Ship. MMSI: 245870000.

Date/timePositionNaut miles runAvg speedWind from/ knotsBaromVisibWave heightAir tempDewpointWater temp
2017-Oct-19 18:26N 44°30' E 012°25'4 9.4
2017-Oct-19 18:01N 44°31' E 012°31'5 9.7
2017-Oct-19 17:30N 44°30' E 012°37'3 5.2
2017-Oct-19 17:00N 44°30' E 012°34'13 0.7
2017-Oct-18 22:49N 44°28' E 012°16'0 0.0
2017-Oct-18 21:58N 44°28' E 012°16'0 0.0
2017-Oct-18 21:10N 44°28' E 012°16'0 0.0
2017-Oct-18 20:51N 44°28' E 012°16'0 0.0
2017-Oct-18 20:12N 44°28' E 012°16'0 0.0
2017-Oct-18 18:54N 44°28' E 012°16'0 0.0
2017-Oct-18 18:20N 44°28' E 012°16'0 0.0
2017-Oct-18 17:53N 44°28' E 012°16'0 0.0
2017-Oct-18 17:23N 44°28' E 012°16'0 0.0
2017-Oct-18 14:58N 44°28' E 012°16'2 0.3
2017-Oct-18 07:27N 44°30' E 012°18'3 7.2
2017-Oct-18 06:59N 44°30' E 012°22'2 3.9
2017-Oct-18 06:28N 44°30' E 012°25'2 2.9
2017-Oct-18 05:54N 44°31' E 012°27'0 0.3
2017-Oct-18 05:29N 44°31' E 012°27'0 0.0
2017-Oct-18 04:54N 44°31' E 012°27'0 0.0
2017-Oct-18 04:30N 44°31' E 012°27'0 0.1
2017-Oct-18 04:00N 44°31' E 012°27'2 4.3
2017-Oct-18 03:30N 44°30' E 012°30'3 5.3
2017-Oct-18 03:00N 44°29' E 012°33'3 5.3
2017-Oct-18 02:29N 44°28' E 012°37'3 5.6
2017-Oct-18 02:00N 44°27' E 012°40'3 5.8
2017-Oct-18 01:30N 44°26' E 012°44'3 6.7
2017-Oct-18 01:01N 44°25' E 012°48'4 8.1
2017-Oct-18 00:30N 44°23' E 012°53'4 8.2
2017-Oct-18 00:00N 44°22' E 012°59'4 8.0
2017-Oct-17 23:30N 44°21' E 013°04'4 8.2
2017-Oct-17 23:00N 44°19' E 013°10'4 8.2
2017-Oct-17 22:30N 44°18' E 013°15'4 8.4
2017-Oct-17 22:00N 44°15' E 013°20'4 8.6
2017-Oct-17 21:30N 44°13' E 013°24'4 8.7
2017-Oct-17 20:59N 44°10' E 013°29'5 9.0
2017-Oct-17 20:24N 44°07' E 013°35'4 9.3
2017-Oct-17 20:00N 44°04' E 013°39'5 9.2
2017-Oct-17 19:28N 44°01' E 013°45'4 9.2
2017-Oct-17 19:00N 43°59' E 013°50'5 9.1
2017-Oct-17 18:28N 43°56' E 013°55'4 9.1
2017-Oct-17 18:00N 43°53' E 013°59'5 9.3
2017-Oct-17 17:29N 43°49' E 014°04'5 9.5
2017-Oct-17 17:00N 43°46' E 014°08'5 9.3
2017-Oct-17 16:30N 43°43' E 014°13'5 9.3
2017-Oct-17 16:00N 43°40' E 014°17'5 9.3
2017-Oct-17 15:30N 43°36' E 014°22'5 9.3
2017-Oct-17 15:00N 43°33' E 014°27'5 9.4
2017-Oct-17 14:31N 43°30' E 014°31'5 9.3
2017-Oct-17 14:00N 43°27' E 014°36'5 9.6
2017-Oct-17 13:30N 43°23' E 014°41'5 9.5
2017-Oct-17 13:00N 43°20' E 014°45'5 9.4
2017-Oct-17 12:27N 43°16' E 014°50'5 9.3
2017-Oct-17 11:55N 43°13' E 014°55'4 9.1
2017-Oct-17 11:30N 43°10' E 014°59'5 9.1
2017-Oct-17 10:58N 43°07' E 015°04'167 9.7
2017-Oct-16 17:45N 41°08' E 017°42'2 9.6
2017-Oct-16 17:30N 41°06' E 017°44'5 9.6
2017-Oct-16 17:00N 41°02' E 017°48'5 9.4
2017-Oct-16 16:30N 40°59' E 017°53'5 9.3
2017-Oct-16 16:00N 40°56' E 017°57'5 9.5
2017-Oct-16 15:30N 40°52' E 018°01'56 9.0
2017-Oct-16 09:16N 40°07' E 018°44'3 9.3
2017-Oct-16 08:58N 40°04' E 018°46'6 9.3
2017-Oct-16 08:21N 39°59' E 018°50'4 9.5
2017-Oct-16 07:57N 39°56' E 018°52'4 9.4
2017-Oct-16 07:30N 39°53' E 018°55'5 9.5
2017-Oct-16 07:00N 39°49' E 018°58'5 9.4
2017-Oct-16 06:30N 39°44' E 019°02'5 9.5
2017-Oct-16 05:59N 39°40' E 019°05'5 9.8
2017-Oct-16 05:30N 39°36' E 019°08'5 9.7
2017-Oct-16 05:00N 39°32' E 019°11'5 9.6
2017-Oct-16 04:30N 39°28' E 019°15'5 9.7
2017-Oct-16 03:57N 39°23' E 019°18'9 9.8
2017-Oct-16 03:05N 39°16' E 019°24'1 9.9
2017-Oct-16 03:00N 39°15' E 019°25'25 9.9
2017-Oct-16 00:30N 38°54' E 019°41'5 9.9
2017-Oct-15 23:59N 38°50' E 019°44'510.1
2017-Oct-15 23:30N 38°46' E 019°48'510.1
2017-Oct-15 23:00N 38°42' E 019°51'510.1
2017-Oct-15 22:30N 38°37' E 019°55'5 9.9
2017-Oct-15 22:01N 38°33' E 019°58'  
Track history (hours):
 
Tides and Currents Weather Stations Pressure Air Temp Water Temp Dewpoint Dewpoint Depression Visibility Wind Speed Wind Dir Waves Ship Positions

Bente

Last reported at 2017-Oct-19 18:26 UTC. Time now 2017-Oct-20 14:29 UTC.
Position N 44°30' E 012°25'.

Length 90 m; draft 3.9 m.

Type: Ship. MMSI: 245870000.

Date/timePositionNaut miles runAvg speedWind from/ knotsBaromVisibWave heightAir tempDewpointWater temp
2017-Oct-19 18:26N 44°30' E 012°25'4 9.4
2017-Oct-19 18:01N 44°31' E 012°31'5 9.7
2017-Oct-19 17:30N 44°30' E 012°37'3 5.2
2017-Oct-19 17:00N 44°30' E 012°34'13 0.7
2017-Oct-18 22:49N 44°28' E 012°16'0 0.0
2017-Oct-18 21:58N 44°28' E 012°16'0 0.0
2017-Oct-18 21:10N 44°28' E 012°16'0 0.0
2017-Oct-18 20:51N 44°28' E 012°16'0 0.0
2017-Oct-18 20:12N 44°28' E 012°16'0 0.0
2017-Oct-18 18:54N 44°28' E 012°16'0 0.0
2017-Oct-18 18:20N 44°28' E 012°16'0 0.0
2017-Oct-18 17:53N 44°28' E 012°16'0 0.0
2017-Oct-18 17:23N 44°28' E 012°16'0 0.0
2017-Oct-18 14:58N 44°28' E 012°16'2 0.3
2017-Oct-18 07:27N 44°30' E 012°18'3 7.2
2017-Oct-18 06:59N 44°30' E 012°22'2 3.9
2017-Oct-18 06:28N 44°30' E 012°25'2 2.9
2017-Oct-18 05:54N 44°31' E 012°27'0 0.3
2017-Oct-18 05:29N 44°31' E 012°27'0 0.0
2017-Oct-18 04:54N 44°31' E 012°27'0 0.0
2017-Oct-18 04:30N 44°31' E 012°27'0 0.1
2017-Oct-18 04:00N 44°31' E 012°27'2 4.3
2017-Oct-18 03:30N 44°30' E 012°30'3 5.3
2017-Oct-18 03:00N 44°29' E 012°33'3 5.3
2017-Oct-18 02:29N 44°28' E 012°37'3 5.6
2017-Oct-18 02:00N 44°27' E 012°40'3 5.8
2017-Oct-18 01:30N 44°26' E 012°44'3 6.7
2017-Oct-18 01:01N 44°25' E 012°48'4 8.1
2017-Oct-18 00:30N 44°23' E 012°53'4 8.2
2017-Oct-18 00:00N 44°22' E 012°59'4 8.0
2017-Oct-17 23:30N 44°21' E 013°04'4 8.2
2017-Oct-17 23:00N 44°19' E 013°10'4 8.2
2017-Oct-17 22:30N 44°18' E 013°15'4 8.4
2017-Oct-17 22:00N 44°15' E 013°20'4 8.6
2017-Oct-17 21:30N 44°13' E 013°24'4 8.7
2017-Oct-17 20:59N 44°10' E 013°29'5 9.0
2017-Oct-17 20:24N 44°07' E 013°35'4 9.3
2017-Oct-17 20:00N 44°04' E 013°39'5 9.2
2017-Oct-17 19:28N 44°01' E 013°45'4 9.2
2017-Oct-17 19:00N 43°59' E 013°50'5 9.1
2017-Oct-17 18:28N 43°56' E 013°55'4 9.1
2017-Oct-17 18:00N 43°53' E 013°59'5 9.3
2017-Oct-17 17:29N 43°49' E 014°04'5 9.5
2017-Oct-17 17:00N 43°46' E 014°08'5 9.3
2017-Oct-17 16:30N 43°43' E 014°13'5 9.3
2017-Oct-17 16:00N 43°40' E 014°17'5 9.3
2017-Oct-17 15:30N 43°36' E 014°22'5 9.3
2017-Oct-17 15:00N 43°33' E 014°27'5 9.4
2017-Oct-17 14:31N 43°30' E 014°31'5 9.3
2017-Oct-17 14:00N 43°27' E 014°36'5 9.6
2017-Oct-17 13:30N 43°23' E 014°41'5 9.5
2017-Oct-17 13:00N 43°20' E 014°45'5 9.4
2017-Oct-17 12:27N 43°16' E 014°50'5 9.3
2017-Oct-17 11:55N 43°13' E 014°55'4 9.1
2017-Oct-17 11:30N 43°10' E 014°59'5 9.1
2017-Oct-17 10:58N 43°07' E 015°04'167 9.7
2017-Oct-16 17:45N 41°08' E 017°42'2 9.6
2017-Oct-16 17:30N 41°06' E 017°44'5 9.6
2017-Oct-16 17:00N 41°02' E 017°48'5 9.4
2017-Oct-16 16:30N 40°59' E 017°53'5 9.3
2017-Oct-16 16:00N 40°56' E 017°57'5 9.5
2017-Oct-16 15:30N 40°52' E 018°01'56 9.0
2017-Oct-16 09:16N 40°07' E 018°44'3 9.3
2017-Oct-16 08:58N 40°04' E 018°46'6 9.3
2017-Oct-16 08:21N 39°59' E 018°50'4 9.5
2017-Oct-16 07:57N 39°56' E 018°52'4 9.4
2017-Oct-16 07:30N 39°53' E 018°55'5 9.5
2017-Oct-16 07:00N 39°49' E 018°58'5 9.4
2017-Oct-16 06:30N 39°44' E 019°02'5 9.5
2017-Oct-16 05:59N 39°40' E 019°05'5 9.8
2017-Oct-16 05:30N 39°36' E 019°08'5 9.7
2017-Oct-16 05:00N 39°32' E 019°11'5 9.6
2017-Oct-16 04:30N 39°28' E 019°15'5 9.7
2017-Oct-16 03:57N 39°23' E 019°18'9 9.8
2017-Oct-16 03:05N 39°16' E 019°24'1 9.9
2017-Oct-16 03:00N 39°15' E 019°25'25 9.9
2017-Oct-16 00:30N 38°54' E 019°41'5 9.9
2017-Oct-15 23:59N 38°50' E 019°44'510.1
2017-Oct-15 23:30N 38°46' E 019°48'510.1
2017-Oct-15 23:00N 38°42' E 019°51'510.1
2017-Oct-15 22:30N 38°37' E 019°55'5 9.9
2017-Oct-15 22:01N 38°33' E 019°58'  

Dump ship's entire track history